sensor_id;sensor_type;location;lat;lon;timestamp;P1;durP1;ratioP1;P2;durP2;ratioP2
64816;SDS011;53289;45.602;11.904;2022-12-29T00:02:22;65.97;;;37.42;;
64816;SDS011;53289;45.602;11.904;2022-12-29T00:04:51;44.70;;;28.40;;
64816;SDS011;53289;45.602;11.904;2022-12-29T00:07:17;55.83;;;31.67;;
64816;SDS011;53289;45.602;11.904;2022-12-29T00:09:43;62.38;;;35.70;;
64816;SDS011;53289;45.602;11.904;2022-12-29T00:12:09;58.65;;;35.42;;
64816;SDS011;53289;45.602;11.904;2022-12-29T00:14:35;53.40;;;32.25;;
64816;SDS011;53289;45.602;11.904;2022-12-29T00:17:19;53.05;;;30.33;;
64816;SDS011;53289;45.602;11.904;2022-12-29T00:19:45;41.50;;;25.02;;
64816;SDS011;53289;45.602;11.904;2022-12-29T00:25:13;39.63;;;25.08;;
64816;SDS011;53289;45.602;11.904;2022-12-29T00:27:57;56.88;;;33.33;;
64816;SDS011;53289;45.602;11.904;2022-12-29T00:30:42;54.05;;;32.10;;
64816;SDS011;53289;45.602;11.904;2022-12-29T00:33:30;48.60;;;27.35;;
64816;SDS011;53289;45.602;11.904;2022-12-29T00:36:17;47.45;;;27.45;;
64816;SDS011;53289;45.602;11.904;2022-12-29T00:38:55;38.55;;;22.80;;
64816;SDS011;53289;45.602;11.904;2022-12-29T00:41:43;39.03;;;25.02;;
64816;SDS011;53289;45.602;11.904;2022-12-29T00:46:53;45.55;;;25.38;;
64816;SDS011;53289;45.602;11.904;2022-12-29T00:49:19;45.72;;;27.02;;
64816;SDS011;53289;45.602;11.904;2022-12-29T00:52:04;38.50;;;22.73;;
64816;SDS011;53289;45.602;11.904;2022-12-29T00:54:33;34.58;;;22.05;;
64816;SDS011;53289;45.602;11.904;2022-12-29T00:57:00;42.47;;;26.33;;
64816;SDS011;53289;45.602;11.904;2022-12-29T00:59:27;44.15;;;24.10;;
64816;SDS011;53289;45.602;11.904;2022-12-29T01:01:53;54.17;;;30.73;;
64816;SDS011;53289;45.602;11.904;2022-12-29T01:04:20;47.58;;;29.25;;
64816;SDS011;53289;45.602;11.904;2022-12-29T01:06:48;50.35;;;31.25;;
64816;SDS011;53289;45.602;11.904;2022-12-29T01:09:14;52.75;;;30.73;;
64816;SDS011;53289;45.602;11.904;2022-12-29T01:11:59;46.42;;;29.25;;
64816;SDS011;53289;45.602;11.904;2022-12-29T01:14:25;47.10;;;28.63;;
64816;SDS011;53289;45.602;11.904;2022-12-29T01:16:51;45.22;;;26.25;;
64816;SDS011;53289;45.602;11.904;2022-12-29T01:19:18;45.97;;;26.45;;
64816;SDS011;53289;45.602;11.904;2022-12-29T01:21:44;39.58;;;23.75;;
64816;SDS011;53289;45.602;11.904;2022-12-29T01:24:11;39.72;;;22.92;;
64816;SDS011;53289;45.602;11.904;2022-12-29T01:26:37;36.20;;;22.60;;
64816;SDS011;53289;45.602;11.904;2022-12-29T01:29:03;30.88;;;20.33;;
64816;SDS011;53289;45.602;11.904;2022-12-29T01:31:28;44.33;;;25.63;;
64816;SDS011;53289;45.602;11.904;2022-12-29T01:33:54;49.78;;;26.75;;
64816;SDS011;53289;45.602;11.904;2022-12-29T01:36:20;33.70;;;20.30;;
64816;SDS011;53289;45.602;11.904;2022-12-29T01:38:46;26.77;;;17.70;;
64816;SDS011;53289;45.602;11.904;2022-12-29T01:41:12;31.52;;;20.08;;
64816;SDS011;53289;45.602;11.904;2022-12-29T01:43:40;25.88;;;17.63;;
64816;SDS011;53289;45.602;11.904;2022-12-29T01:46:16;33.17;;;19.80;;
64816;SDS011;53289;45.602;11.904;2022-12-29T01:48:49;33.63;;;21.15;;
64816;SDS011;53289;45.602;11.904;2022-12-29T01:51:44;37.63;;;22.90;;
64816;SDS011;53289;45.602;11.904;2022-12-29T01:54:22;35.67;;;22.23;;
64816;SDS011;53289;45.602;11.904;2022-12-29T01:56:53;36.35;;;21.20;;
64816;SDS011;53289;45.602;11.904;2022-12-29T01:59:22;30.80;;;17.95;;
64816;SDS011;53289;45.602;11.904;2022-12-29T02:01:51;27.70;;;17.90;;
64816;SDS011;53289;45.602;11.904;2022-12-29T02:04:17;37.97;;;22.08;;
64816;SDS011;53289;45.602;11.904;2022-12-29T02:06:51;29.52;;;19.13;;
64816;SDS011;53289;45.602;11.904;2022-12-29T02:09:21;27.83;;;16.48;;
64816;SDS011;53289;45.602;11.904;2022-12-29T02:11:48;40.58;;;22.83;;
64816;SDS011;53289;45.602;11.904;2022-12-29T02:14:14;44.45;;;26.15;;
64816;SDS011;53289;45.602;11.904;2022-12-29T02:27:36;39.78;;;24.73;;
64816;SDS011;53289;45.602;11.904;2022-12-29T02:30:15;50.45;;;29.20;;
64816;SDS011;53289;45.602;11.904;2022-12-29T02:32:58;45.33;;;27.25;;
64816;SDS011;53289;45.602;11.904;2022-12-29T02:35:33;41.95;;;25.77;;
64816;SDS011;53289;45.602;11.904;2022-12-29T02:38:31;45.75;;;26.10;;
64816;SDS011;53289;45.602;11.904;2022-12-29T02:41:13;46.17;;;28.73;;
64816;SDS011;53289;45.602;11.904;2022-12-29T02:43:56;44.47;;;27.95;;
64816;SDS011;53289;45.602;11.904;2022-12-29T02:46:35;41.95;;;26.52;;
64816;SDS011;53289;45.602;11.904;2022-12-29T02:49:20;46.03;;;27.55;;
64816;SDS011;53289;45.602;11.904;2022-12-29T02:54:26;48.10;;;26.98;;
64816;SDS011;53289;45.602;11.904;2022-12-29T02:57:12;44.75;;;26.38;;
64816;SDS011;53289;45.602;11.904;2022-12-29T03:11:14;27.20;;;16.83;;
64816;SDS011;53289;45.602;11.904;2022-12-29T03:14:11;27.13;;;16.95;;
64816;SDS011;53289;45.602;11.904;2022-12-29T03:17:08;45.08;;;24.40;;
64816;SDS011;53289;45.602;11.904;2022-12-29T03:19:41;30.70;;;18.50;;
64816;SDS011;53289;45.602;11.904;2022-12-29T03:22:14;38.92;;;22.00;;
64816;SDS011;53289;45.602;11.904;2022-12-29T03:24:53;31.52;;;18.55;;
64816;SDS011;53289;45.602;11.904;2022-12-29T03:27:24;29.35;;;19.10;;
64816;SDS011;53289;45.602;11.904;2022-12-29T03:29:59;62.35;;;34.10;;
64816;SDS011;53289;45.602;11.904;2022-12-29T03:32:30;46.53;;;26.45;;
64816;SDS011;53289;45.602;11.904;2022-12-29T03:34:59;35.38;;;20.60;;
64816;SDS011;53289;45.602;11.904;2022-12-29T03:37:31;56.03;;;29.17;;
64816;SDS011;53289;45.602;11.904;2022-12-29T03:40:02;51.65;;;29.25;;
64816;SDS011;53289;45.602;11.904;2022-12-29T03:42:30;38.55;;;22.67;;
64816;SDS011;53289;45.602;11.904;2022-12-29T03:44:59;46.00;;;26.80;;
64816;SDS011;53289;45.602;11.904;2022-12-29T03:47:25;46.05;;;25.30;;
64816;SDS011;53289;45.602;11.904;2022-12-29T03:49:51;45.65;;;27.02;;
64816;SDS011;53289;45.602;11.904;2022-12-29T03:52:17;37.22;;;21.77;;
64816;SDS011;53289;45.602;11.904;2022-12-29T03:54:43;31.98;;;19.77;;
64816;SDS011;53289;45.602;11.904;2022-12-29T03:57:10;34.88;;;20.50;;
64816;SDS011;53289;45.602;11.904;2022-12-29T03:59:36;30.45;;;19.48;;
64816;SDS011;53289;45.602;11.904;2022-12-29T04:02:02;32.78;;;19.63;;
64816;SDS011;53289;45.602;11.904;2022-12-29T04:04:28;28.60;;;17.75;;
64816;SDS011;53289;45.602;11.904;2022-12-29T04:06:54;33.95;;;18.85;;
64816;SDS011;53289;45.602;11.904;2022-12-29T04:09:20;31.08;;;18.48;;
64816;SDS011;53289;45.602;11.904;2022-12-29T04:11:46;29.63;;;17.17;;
64816;SDS011;53289;45.602;11.904;2022-12-29T04:14:18;34.78;;;20.75;;
64816;SDS011;53289;45.602;11.904;2022-12-29T04:16:44;30.77;;;18.48;;
64816;SDS011;53289;45.602;11.904;2022-12-29T04:19:10;25.90;;;16.52;;
64816;SDS011;53289;45.602;11.904;2022-12-29T04:21:35;25.50;;;15.68;;
64816;SDS011;53289;45.602;11.904;2022-12-29T04:24:01;25.25;;;15.52;;
64816;SDS011;53289;45.602;11.904;2022-12-29T04:26:28;29.15;;;17.00;;
64816;SDS011;53289;45.602;11.904;2022-12-29T04:28:53;35.67;;;20.83;;
64816;SDS011;53289;45.602;11.904;2022-12-29T04:31:19;42.45;;;23.73;;
64816;SDS011;53289;45.602;11.904;2022-12-29T04:33:45;38.45;;;23.40;;
64816;SDS011;53289;45.602;11.904;2022-12-29T04:36:11;39.03;;;22.25;;
64816;SDS011;53289;45.602;11.904;2022-12-29T04:38:37;33.65;;;19.50;;
64816;SDS011;53289;45.602;11.904;2022-12-29T04:41:03;28.73;;;17.55;;
64816;SDS011;53289;45.602;11.904;2022-12-29T04:43:30;32.42;;;20.10;;
64816;SDS011;53289;45.602;11.904;2022-12-29T04:45:55;31.88;;;19.48;;
64816;SDS011;53289;45.602;11.904;2022-12-29T04:48:21;34.50;;;20.23;;
64816;SDS011;53289;45.602;11.904;2022-12-29T04:50:48;27.83;;;17.98;;
64816;SDS011;53289;45.602;11.904;2022-12-29T04:53:14;32.33;;;18.77;;
64816;SDS011;53289;45.602;11.904;2022-12-29T04:55:41;34.58;;;21.10;;
64816;SDS011;53289;45.602;11.904;2022-12-29T04:58:07;28.00;;;17.48;;
64816;SDS011;53289;45.602;11.904;2022-12-29T05:00:33;31.90;;;19.23;;
64816;SDS011;53289;45.602;11.904;2022-12-29T05:02:59;32.60;;;19.73;;
64816;SDS011;53289;45.602;11.904;2022-12-29T05:05:25;36.72;;;20.73;;
64816;SDS011;53289;45.602;11.904;2022-12-29T05:07:51;32.35;;;19.60;;
64816;SDS011;53289;45.602;11.904;2022-12-29T05:10:17;28.30;;;16.23;;
64816;SDS011;53289;45.602;11.904;2022-12-29T05:12:43;29.58;;;16.80;;
64816;SDS011;53289;45.602;11.904;2022-12-29T05:15:10;30.70;;;18.00;;
64816;SDS011;53289;45.602;11.904;2022-12-29T05:17:36;24.08;;;14.85;;
64816;SDS011;53289;45.602;11.904;2022-12-29T05:20:03;28.92;;;17.63;;
64816;SDS011;53289;45.602;11.904;2022-12-29T05:22:30;33.78;;;18.90;;
64816;SDS011;53289;45.602;11.904;2022-12-29T05:24:55;37.90;;;21.48;;
64816;SDS011;53289;45.602;11.904;2022-12-29T05:27:21;35.80;;;21.10;;
64816;SDS011;53289;45.602;11.904;2022-12-29T05:29:47;26.08;;;16.42;;
64816;SDS011;53289;45.602;11.904;2022-12-29T05:32:13;29.98;;;18.33;;
64816;SDS011;53289;45.602;11.904;2022-12-29T05:34:39;31.13;;;19.20;;
64816;SDS011;53289;45.602;11.904;2022-12-29T05:37:05;31.92;;;19.75;;
64816;SDS011;53289;45.602;11.904;2022-12-29T05:39:31;28.17;;;17.40;;
64816;SDS011;53289;45.602;11.904;2022-12-29T05:41:57;36.88;;;21.10;;
64816;SDS011;53289;45.602;11.904;2022-12-29T05:44:23;34.20;;;20.40;;
64816;SDS011;53289;45.602;11.904;2022-12-29T05:46:49;32.42;;;17.63;;
64816;SDS011;53289;45.602;11.904;2022-12-29T05:49:15;29.52;;;18.10;;
64816;SDS011;53289;45.602;11.904;2022-12-29T05:51:41;32.70;;;20.42;;
64816;SDS011;53289;45.602;11.904;2022-12-29T05:54:07;29.38;;;17.15;;
64816;SDS011;53289;45.602;11.904;2022-12-29T05:56:33;33.35;;;19.40;;
64816;SDS011;53289;45.602;11.904;2022-12-29T05:58:59;31.40;;;19.52;;
64816;SDS011;53289;45.602;11.904;2022-12-29T06:01:25;31.88;;;18.40;;
64816;SDS011;53289;45.602;11.904;2022-12-29T06:03:51;41.22;;;21.98;;
64816;SDS011;53289;45.602;11.904;2022-12-29T06:06:17;36.50;;;21.38;;
64816;SDS011;53289;45.602;11.904;2022-12-29T06:08:43;35.03;;;19.85;;
64816;SDS011;53289;45.602;11.904;2022-12-29T06:11:09;57.05;;;28.45;;
64816;SDS011;53289;45.602;11.904;2022-12-29T06:13:34;36.55;;;20.63;;
64816;SDS011;53289;45.602;11.904;2022-12-29T06:16:00;40.95;;;21.63;;
64816;SDS011;53289;45.602;11.904;2022-12-29T06:18:27;31.63;;;17.85;;
64816;SDS011;53289;45.602;11.904;2022-12-29T06:20:53;33.80;;;18.75;;
64816;SDS011;53289;45.602;11.904;2022-12-29T06:23:19;30.58;;;17.60;;
64816;SDS011;53289;45.602;11.904;2022-12-29T06:25:46;30.00;;;17.55;;
64816;SDS011;53289;45.602;11.904;2022-12-29T06:28:13;26.77;;;16.08;;
64816;SDS011;53289;45.602;11.904;2022-12-29T06:30:39;32.35;;;18.75;;
64816;SDS011;53289;45.602;11.904;2022-12-29T06:33:08;31.77;;;17.90;;
64816;SDS011;53289;45.602;11.904;2022-12-29T06:35:33;35.47;;;19.45;;
64816;SDS011;53289;45.602;11.904;2022-12-29T06:37:59;37.00;;;20.13;;
64816;SDS011;53289;45.602;11.904;2022-12-29T06:40:25;39.90;;;19.95;;
64816;SDS011;53289;45.602;11.904;2022-12-29T06:42:51;42.08;;;23.95;;
64816;SDS011;53289;45.602;11.904;2022-12-29T06:45:17;26.70;;;16.25;;
64816;SDS011;53289;45.602;11.904;2022-12-29T06:47:43;38.50;;;22.25;;
64816;SDS011;53289;45.602;11.904;2022-12-29T06:50:09;26.38;;;16.48;;
64816;SDS011;53289;45.602;11.904;2022-12-29T06:52:34;34.22;;;19.42;;
64816;SDS011;53289;45.602;11.904;2022-12-29T06:55:00;38.70;;;21.77;;
64816;SDS011;53289;45.602;11.904;2022-12-29T06:57:26;29.67;;;17.40;;
64816;SDS011;53289;45.602;11.904;2022-12-29T06:59:52;27.65;;;15.93;;
64816;SDS011;53289;45.602;11.904;2022-12-29T07:02:21;39.15;;;21.83;;
64816;SDS011;53289;45.602;11.904;2022-12-29T07:04:47;37.60;;;21.67;;
64816;SDS011;53289;45.602;11.904;2022-12-29T07:07:13;231.63;;;105.95;;
64816;SDS011;53289;45.602;11.904;2022-12-29T07:09:39;163.07;;;77.40;;
64816;SDS011;53289;45.602;11.904;2022-12-29T07:12:05;94.80;;;48.10;;
64816;SDS011;53289;45.602;11.904;2022-12-29T07:14:31;85.30;;;40.30;;
64816;SDS011;53289;45.602;11.904;2022-12-29T07:16:57;60.78;;;31.17;;
64816;SDS011;53289;45.602;11.904;2022-12-29T07:19:22;48.60;;;26.42;;
64816;SDS011;53289;45.602;11.904;2022-12-29T07:21:48;45.85;;;24.90;;
64816;SDS011;53289;45.602;11.904;2022-12-29T07:24:14;46.22;;;22.50;;
64816;SDS011;53289;45.602;11.904;2022-12-29T07:26:40;39.33;;;21.40;;
64816;SDS011;53289;45.602;11.904;2022-12-29T07:29:06;32.60;;;19.63;;
64816;SDS011;53289;45.602;11.904;2022-12-29T07:31:32;32.13;;;18.58;;
64816;SDS011;53289;45.602;11.904;2022-12-29T07:33:58;27.83;;;17.20;;
64816;SDS011;53289;45.602;11.904;2022-12-29T07:36:24;29.45;;;17.80;;
64816;SDS011;53289;45.602;11.904;2022-12-29T07:38:50;27.40;;;17.25;;
64816;SDS011;53289;45.602;11.904;2022-12-29T07:41:16;28.17;;;16.80;;
64816;SDS011;53289;45.602;11.904;2022-12-29T07:43:42;28.73;;;17.08;;
64816;SDS011;53289;45.602;11.904;2022-12-29T07:46:11;28.17;;;16.83;;
64816;SDS011;53289;45.602;11.904;2022-12-29T07:48:37;21.67;;;13.98;;
64816;SDS011;53289;45.602;11.904;2022-12-29T07:51:03;25.27;;;15.27;;
64816;SDS011;53289;45.602;11.904;2022-12-29T07:53:29;24.23;;;14.80;;
64816;SDS011;53289;45.602;11.904;2022-12-29T07:55:55;27.15;;;16.15;;
64816;SDS011;53289;45.602;11.904;2022-12-29T07:58:21;33.65;;;19.50;;
64816;SDS011;53289;45.602;11.904;2022-12-29T08:00:47;39.13;;;23.25;;
64816;SDS011;53289;45.602;11.904;2022-12-29T08:03:17;44.17;;;24.92;;
64816;SDS011;53289;45.602;11.904;2022-12-29T08:05:43;36.78;;;21.55;;
64816;SDS011;53289;45.602;11.904;2022-12-29T08:08:09;39.47;;;20.92;;
64816;SDS011;53289;45.602;11.904;2022-12-29T08:10:35;31.23;;;18.60;;
64816;SDS011;53289;45.602;11.904;2022-12-29T08:13:01;35.60;;;20.20;;
64816;SDS011;53289;45.602;11.904;2022-12-29T08:15:30;30.80;;;19.58;;
64816;SDS011;53289;45.602;11.904;2022-12-29T08:17:55;35.75;;;21.00;;
64816;SDS011;53289;45.602;11.904;2022-12-29T08:20:21;37.10;;;21.58;;
64816;SDS011;53289;45.602;11.904;2022-12-29T08:22:47;33.03;;;21.05;;
64816;SDS011;53289;45.602;11.904;2022-12-29T08:25:13;36.85;;;21.85;;
64816;SDS011;53289;45.602;11.904;2022-12-29T08:27:39;33.60;;;20.88;;
64816;SDS011;53289;45.602;11.904;2022-12-29T08:30:05;37.97;;;23.75;;
64816;SDS011;53289;45.602;11.904;2022-12-29T08:32:31;36.05;;;21.95;;
64816;SDS011;53289;45.602;11.904;2022-12-29T08:34:57;40.33;;;22.63;;
64816;SDS011;53289;45.602;11.904;2022-12-29T08:37:23;45.28;;;27.00;;
64816;SDS011;53289;45.602;11.904;2022-12-29T08:39:49;45.25;;;29.45;;
64816;SDS011;53289;45.602;11.904;2022-12-29T08:42:15;38.35;;;24.50;;
64816;SDS011;53289;45.602;11.904;2022-12-29T08:44:41;39.83;;;24.48;;
64816;SDS011;53289;45.602;11.904;2022-12-29T08:47:08;38.40;;;23.60;;
64816;SDS011;53289;45.602;11.904;2022-12-29T08:49:35;41.75;;;25.30;;
64816;SDS011;53289;45.602;11.904;2022-12-29T08:52:01;35.22;;;22.50;;
64816;SDS011;53289;45.602;11.904;2022-12-29T08:54:27;45.75;;;26.98;;
64816;SDS011;53289;45.602;11.904;2022-12-29T08:56:53;34.13;;;21.50;;
64816;SDS011;53289;45.602;11.904;2022-12-29T08:59:19;34.85;;;21.02;;
64816;SDS011;53289;45.602;11.904;2022-12-29T09:01:45;32.22;;;20.05;;
64816;SDS011;53289;45.602;11.904;2022-12-29T09:04:11;31.05;;;20.30;;
64816;SDS011;53289;45.602;11.904;2022-12-29T09:06:37;32.97;;;19.63;;
64816;SDS011;53289;45.602;11.904;2022-12-29T09:09:03;27.95;;;17.60;;
64816;SDS011;53289;45.602;11.904;2022-12-29T09:11:29;29.67;;;17.52;;
64816;SDS011;53289;45.602;11.904;2022-12-29T09:13:55;33.58;;;20.42;;
64816;SDS011;53289;45.602;11.904;2022-12-29T09:16:22;29.88;;;18.83;;
64816;SDS011;53289;45.602;11.904;2022-12-29T09:18:48;31.70;;;19.35;;
64816;SDS011;53289;45.602;11.904;2022-12-29T09:21:15;30.77;;;19.80;;
64816;SDS011;53289;45.602;11.904;2022-12-29T09:23:40;29.63;;;19.20;;
64816;SDS011;53289;45.602;11.904;2022-12-29T09:26:07;28.38;;;17.95;;
64816;SDS011;53289;45.602;11.904;2022-12-29T09:28:33;30.10;;;17.02;;
64816;SDS011;53289;45.602;11.904;2022-12-29T09:31:00;28.05;;;16.50;;
64816;SDS011;53289;45.602;11.904;2022-12-29T09:33:26;41.38;;;22.92;;
64816;SDS011;53289;45.602;11.904;2022-12-29T09:35:57;42.35;;;22.75;;
64816;SDS011;53289;45.602;11.904;2022-12-29T09:38:24;34.47;;;20.88;;
64816;SDS011;53289;45.602;11.904;2022-12-29T09:40:55;30.20;;;18.65;;
64816;SDS011;53289;45.602;11.904;2022-12-29T09:46:54;28.63;;;18.13;;
64816;SDS011;53289;45.602;11.904;2022-12-29T09:51:30;24.33;;;15.45;;
64816;SDS011;53289;45.602;11.904;2022-12-29T09:54:02;20.00;;;13.32;;
64816;SDS011;53289;45.602;11.904;2022-12-29T09:56:50;24.88;;;14.68;;
64816;SDS011;53289;45.602;11.904;2022-12-29T09:59:18;21.27;;;13.25;;
64816;SDS011;53289;45.602;11.904;2022-12-29T10:07:55;27.90;;;15.88;;
64816;SDS011;53289;45.602;11.904;2022-12-29T10:16:23;25.33;;;15.95;;
64816;SDS011;53289;45.602;11.904;2022-12-29T10:19:06;25.73;;;16.73;;
64816;SDS011;53289;45.602;11.904;2022-12-29T10:22:00;27.60;;;17.23;;
64816;SDS011;53289;45.602;11.904;2022-12-29T10:24:37;27.63;;;17.25;;
64816;SDS011;53289;45.602;11.904;2022-12-29T10:27:05;27.20;;;18.15;;
64816;SDS011;53289;45.602;11.904;2022-12-29T10:29:48;22.08;;;14.25;;
64816;SDS011;53289;45.602;11.904;2022-12-29T10:34:53;29.98;;;17.85;;
64816;SDS011;53289;45.602;11.904;2022-12-29T10:42:55;26.17;;;17.55;;
64816;SDS011;53289;45.602;11.904;2022-12-29T10:45:24;26.98;;;17.13;;
64816;SDS011;53289;45.602;11.904;2022-12-29T10:48:05;27.45;;;17.92;;
64816;SDS011;53289;45.602;11.904;2022-12-29T10:50:36;27.95;;;16.73;;
64816;SDS011;53289;45.602;11.904;2022-12-29T10:53:07;27.50;;;17.33;;
64816;SDS011;53289;45.602;11.904;2022-12-29T10:55:42;28.95;;;16.92;;
64816;SDS011;53289;45.602;11.904;2022-12-29T10:58:10;23.08;;;14.75;;
64816;SDS011;53289;45.602;11.904;2022-12-29T11:00:38;25.42;;;16.13;;
64816;SDS011;53289;45.602;11.904;2022-12-29T11:06:21;33.63;;;21.17;;
64816;SDS011;53289;45.602;11.904;2022-12-29T11:08:55;27.67;;;17.65;;
64816;SDS011;53289;45.602;11.904;2022-12-29T11:11:34;33.28;;;20.65;;
64816;SDS011;53289;45.602;11.904;2022-12-29T11:16:57;24.75;;;16.08;;
64816;SDS011;53289;45.602;11.904;2022-12-29T11:19:26;28.50;;;18.85;;
64816;SDS011;53289;45.602;11.904;2022-12-29T11:21:56;25.63;;;16.33;;
64816;SDS011;53289;45.602;11.904;2022-12-29T11:24:37;24.17;;;15.05;;
64816;SDS011;53289;45.602;11.904;2022-12-29T11:27:20;25.87;;;15.80;;
64816;SDS011;53289;45.602;11.904;2022-12-29T11:29:48;29.40;;;18.23;;
64816;SDS011;53289;45.602;11.904;2022-12-29T11:32:22;21.30;;;13.90;;
64816;SDS011;53289;45.602;11.904;2022-12-29T11:34:50;21.25;;;14.65;;
64816;SDS011;53289;45.602;11.904;2022-12-29T11:37:17;24.00;;;15.98;;
64816;SDS011;53289;45.602;11.904;2022-12-29T11:40:06;22.88;;;13.75;;
64816;SDS011;53289;45.602;11.904;2022-12-29T11:45:23;26.02;;;15.68;;
64816;SDS011;53289;45.602;11.904;2022-12-29T11:47:50;24.20;;;14.93;;
64816;SDS011;53289;45.602;11.904;2022-12-29T11:50:22;28.70;;;17.00;;
64816;SDS011;53289;45.602;11.904;2022-12-29T11:52:56;26.45;;;15.38;;
64816;SDS011;53289;45.602;11.904;2022-12-29T11:55:24;26.48;;;15.75;;
64816;SDS011;53289;45.602;11.904;2022-12-29T11:57:52;23.50;;;14.50;;
64816;SDS011;53289;45.602;11.904;2022-12-29T12:00:22;25.10;;;15.68;;
64816;SDS011;53289;45.602;11.904;2022-12-29T12:03:00;22.65;;;13.73;;
64816;SDS011;53289;45.602;11.904;2022-12-29T12:05:29;24.23;;;16.27;;
64816;SDS011;53289;45.602;11.904;2022-12-29T12:07:59;32.80;;;17.23;;
64816;SDS011;53289;45.602;11.904;2022-12-29T12:11:12;22.98;;;14.45;;
64816;SDS011;53289;45.602;11.904;2022-12-29T12:13:53;23.30;;;14.27;;
64816;SDS011;53289;45.602;11.904;2022-12-29T12:16:41;24.50;;;15.63;;
64816;SDS011;53289;45.602;11.904;2022-12-29T12:19:15;23.35;;;15.23;;
64816;SDS011;53289;45.602;11.904;2022-12-29T12:21:58;23.58;;;15.05;;
64816;SDS011;53289;45.602;11.904;2022-12-29T12:24:49;28.73;;;18.13;;
64816;SDS011;53289;45.602;11.904;2022-12-29T12:27:24;25.70;;;15.85;;
64816;SDS011;53289;45.602;11.904;2022-12-29T12:30:04;25.55;;;16.27;;
64816;SDS011;53289;45.602;11.904;2022-12-29T12:32:48;22.52;;;14.50;;
64816;SDS011;53289;45.602;11.904;2022-12-29T12:52:20;23.42;;;14.25;;
64816;SDS011;53289;45.602;11.904;2022-12-29T12:57:54;19.70;;;12.60;;
64816;SDS011;53289;45.602;11.904;2022-12-29T13:00:23;20.13;;;13.65;;
64816;SDS011;53289;45.602;11.904;2022-12-29T13:10:48;26.88;;;16.83;;
64816;SDS011;53289;45.602;11.904;2022-12-29T13:21:56;28.27;;;18.45;;
64816;SDS011;53289;45.602;11.904;2022-12-29T13:24:32;24.08;;;15.32;;
64816;SDS011;53289;45.602;11.904;2022-12-29T13:29:50;33.10;;;19.77;;
64816;SDS011;53289;45.602;11.904;2022-12-29T13:35:18;27.48;;;17.08;;
64816;SDS011;53289;45.602;11.904;2022-12-29T13:40:55;19.85;;;13.00;;
64816;SDS011;53289;45.602;11.904;2022-12-29T13:43:25;26.40;;;16.80;;
64816;SDS011;53289;45.602;11.904;2022-12-29T13:45:57;27.08;;;17.67;;
64816;SDS011;53289;45.602;11.904;2022-12-29T13:48:38;28.88;;;17.88;;
64816;SDS011;53289;45.602;11.904;2022-12-29T13:51:20;28.25;;;17.45;;
64816;SDS011;53289;45.602;11.904;2022-12-29T13:59:48;32.30;;;18.40;;
64816;SDS011;53289;45.602;11.904;2022-12-29T14:07:58;31.13;;;19.17;;
64816;SDS011;53289;45.602;11.904;2022-12-29T14:10:35;27.92;;;17.65;;
64816;SDS011;53289;45.602;11.904;2022-12-29T14:13:10;44.42;;;25.33;;
64816;SDS011;53289;45.602;11.904;2022-12-29T14:15:42;35.20;;;21.98;;
64816;SDS011;53289;45.602;11.904;2022-12-29T14:20:54;30.88;;;17.77;;
64816;SDS011;53289;45.602;11.904;2022-12-29T14:23:44;29.67;;;18.90;;
64816;SDS011;53289;45.602;11.904;2022-12-29T14:28:56;28.73;;;16.45;;
64816;SDS011;53289;45.602;11.904;2022-12-29T14:31:40;25.98;;;16.60;;
64816;SDS011;53289;45.602;11.904;2022-12-29T14:44:46;25.65;;;16.40;;
64816;SDS011;53289;45.602;11.904;2022-12-29T14:49:55;26.58;;;15.55;;
64816;SDS011;53289;45.602;11.904;2022-12-29T14:52:25;26.98;;;16.60;;
64816;SDS011;53289;45.602;11.904;2022-12-29T14:54:57;27.40;;;17.00;;
64816;SDS011;53289;45.602;11.904;2022-12-29T14:57:49;29.95;;;19.38;;
64816;SDS011;53289;45.602;11.904;2022-12-29T15:00:19;31.48;;;20.25;;
64816;SDS011;53289;45.602;11.904;2022-12-29T15:02:52;32.53;;;20.25;;
64816;SDS011;53289;45.602;11.904;2022-12-29T15:05:36;33.53;;;20.50;;
64816;SDS011;53289;45.602;11.904;2022-12-29T15:08:09;35.30;;;20.95;;
64816;SDS011;53289;45.602;11.904;2022-12-29T15:10:42;37.78;;;21.77;;
64816;SDS011;53289;45.602;11.904;2022-12-29T15:13:17;35.80;;;22.25;;
64816;SDS011;53289;45.602;11.904;2022-12-29T15:15:47;31.63;;;20.75;;
64816;SDS011;53289;45.602;11.904;2022-12-29T15:18:14;32.92;;;21.08;;
64816;SDS011;53289;45.602;11.904;2022-12-29T15:20:52;32.30;;;21.17;;
64816;SDS011;53289;45.602;11.904;2022-12-29T15:23:24;30.08;;;18.83;;
64816;SDS011;53289;45.602;11.904;2022-12-29T15:25:57;26.45;;;16.90;;
64816;SDS011;53289;45.602;11.904;2022-12-29T15:28:24;27.20;;;17.95;;
64816;SDS011;53289;45.602;11.904;2022-12-29T15:30:54;27.05;;;18.05;;
64816;SDS011;53289;45.602;11.904;2022-12-29T15:33:23;24.45;;;16.38;;
64816;SDS011;53289;45.602;11.904;2022-12-29T15:35:53;25.27;;;16.02;;
64816;SDS011;53289;45.602;11.904;2022-12-29T15:38:22;26.42;;;16.13;;
64816;SDS011;53289;45.602;11.904;2022-12-29T15:40:53;23.83;;;15.50;;
64816;SDS011;53289;45.602;11.904;2022-12-29T15:43:29;23.42;;;16.35;;
64816;SDS011;53289;45.602;11.904;2022-12-29T15:46:15;30.30;;;18.50;;
64816;SDS011;53289;45.602;11.904;2022-12-29T15:48:42;30.38;;;17.90;;
64816;SDS011;53289;45.602;11.904;2022-12-29T15:51:22;24.27;;;15.60;;
64816;SDS011;53289;45.602;11.904;2022-12-29T15:53:59;33.10;;;19.48;;
64816;SDS011;53289;45.602;11.904;2022-12-29T15:56:28;39.47;;;21.27;;
64816;SDS011;53289;45.602;11.904;2022-12-29T15:58:55;37.60;;;21.42;;
64816;SDS011;53289;45.602;11.904;2022-12-29T16:03:57;30.48;;;21.13;;
64816;SDS011;53289;45.602;11.904;2022-12-29T16:06:36;33.03;;;19.20;;
64816;SDS011;53289;45.602;11.904;2022-12-29T16:09:46;35.70;;;19.77;;
64816;SDS011;53289;45.602;11.904;2022-12-29T16:12:13;34.67;;;19.73;;
64816;SDS011;53289;45.602;11.904;2022-12-29T16:14:44;24.48;;;15.65;;
64816;SDS011;53289;45.602;11.904;2022-12-29T16:17:13;28.88;;;18.10;;
64816;SDS011;53289;45.602;11.904;2022-12-29T16:19:48;26.50;;;17.25;;
64816;SDS011;53289;45.602;11.904;2022-12-29T16:22:21;26.65;;;18.05;;
64816;SDS011;53289;45.602;11.904;2022-12-29T16:24:49;30.35;;;19.50;;
64816;SDS011;53289;45.602;11.904;2022-12-29T16:27:20;36.42;;;21.25;;
64816;SDS011;53289;45.602;11.904;2022-12-29T16:29:57;24.67;;;17.83;;
64816;SDS011;53289;45.602;11.904;2022-12-29T16:37:48;39.97;;;22.52;;
64816;SDS011;53289;45.602;11.904;2022-12-29T16:40:37;38.42;;;22.80;;
64816;SDS011;53289;45.602;11.904;2022-12-29T16:43:21;35.47;;;22.90;;
64816;SDS011;53289;45.602;11.904;2022-12-29T16:50:39;54.47;;;31.02;;
64816;SDS011;53289;45.602;11.904;2022-12-29T16:53:29;37.25;;;24.52;;
64816;SDS011;53289;45.602;11.904;2022-12-29T16:55:57;34.88;;;22.83;;
64816;SDS011;53289;45.602;11.904;2022-12-29T16:58:28;34.25;;;22.35;;
64816;SDS011;53289;45.602;11.904;2022-12-29T17:00:57;33.17;;;21.40;;
64816;SDS011;53289;45.602;11.904;2022-12-29T17:03:27;38.40;;;24.33;;